Time;durP1;ratioP1;P1;durP2;ratioP2;P2;SDS_P1;SDS_P2;PMS_P1;PMS_P2;Temp;Humidity;BMP_temperature;BMP_pressure;BME280_temperature;BME280_humidity;BME280_pressure;Samples;Min_cycle;Max_cycle;Signal;HPM_P1;HPM_P2
2023/04/03 00:06:43;;;;;;;9.37;7.20;;;5.50;99.90;;;;;;5023530;28;20184;-91
2023/04/03 00:09:20;;;;;;;8.00;6.37;;;5.40;99.90;;;;;;5055914;28;20161;-90
2023/04/03 00:12:06;;;;;;;10.37;6.33;;;5.40;99.90;;;;;;5053771;28;20184;-91
2023/04/03 00:28:16;;;;;;;7.60;6.70;;;5.40;99.90;;;;;;4938491;29;20184;-90
2023/04/03 00:44:54;;;;;;;9.03;6.23;;;5.20;99.90;;;;;;4975646;28;20263;-91
2023/04/03 00:47:41;;;;;;;7.60;4.90;;;5.10;99.90;;;;;;4958184;28;20549;-91
2023/04/03 01:01:58;;;;;;;6.47;5.37;;;5.00;99.90;;;;;;4955996;29;20231;-91
2023/04/03 01:12:23;;;;;;;;;;;;;;;;;;;;;
2023/04/03 01:15:34;;;;;;;8.20;5.37;;;4.90;99.90;;;;;;4900102;29;20230;-90
2023/04/03 01:18:34;;;;;;;8.43;5.90;;;4.80;99.90;;;;;;4899072;29;20307;-91
2023/04/03 01:35:21;;;;;;;8.70;5.63;;;4.70;99.90;;;;;;4910391;29;20263;-92
2023/04/03 01:48:45;;;;;;;;;;;;;;;;;;;;;
2023/04/03 01:54:43;;;;;;;9.80;5.73;;;4.50;99.90;;;;;;4985822;28;20178;-91
2023/04/03 02:05:11;;;;;;;8.60;6.40;;;4.60;99.90;;;;;;4899490;29;20238;-91
2023/04/03 02:11:42;;;;;;;;;;;;;;;;;;;;;
2023/04/03 02:15:23;;;;;;;8.20;5.60;;;4.50;99.90;;;;;;4992269;28;20240;-91
2023/04/03 02:18:04;;;;;;;6.90;5.67;;;4.50;99.90;;;;;;5045134;28;20231;-91
2023/04/03 02:20:36;;;;;;;8.00;5.80;;;4.50;99.90;;;;;;4934943;29;20189;-91
2023/04/03 02:23:36;;;;;;;;;;;;;;;;;;;;;
2023/04/03 02:26:13;;;;;;;8.20;5.70;;;4.40;99.90;;;;;;4937469;29;20258;-91
2023/04/03 02:32:58;;;;;;;7.70;5.60;;;4.40;99.90;;;;;;4954425;28;20295;-90
2023/04/03 02:35:54;;;;;;;7.73;5.80;;;4.40;99.90;;;;;;4936331;29;20165;-90
2023/04/03 02:38:36;;;;;;;8.37;5.53;;;4.40;99.90;;;;;;5053770;28;20212;-91
2023/04/03 02:42:10;;;;;;;;;;;;;;;;;;;;;
2023/04/03 02:45:41;;;;;;;7.83;5.67;;;4.30;99.90;;;;;;4921717;29;20252;-91
2023/04/03 02:48:26;;;;;;;8.57;5.43;;;4.20;99.90;;;;;;4894942;29;20184;-90
2023/04/03 02:51:14;;;;;;;7.63;5.73;;;4.20;99.90;;;;;;4974503;28;20259;-90
2023/04/03 02:54:23;;;;;;;8.50;5.63;;;4.30;99.90;;;;;;5034798;28;20191;-91
2023/04/03 02:57:08;;;;;;;8.57;6.17;;;4.20;99.90;;;;;;5053046;28;20197;-91
2023/04/03 03:00:40;;;;;;;;;;;;;;;;;;;;;
2023/04/03 03:07:09;;;;;;;9.47;6.07;;;4.20;99.90;;;;;;4992442;28;20189;-91
2023/04/03 03:10:54;;;;;;;10.47;6.30;;;4.20;99.90;;;;;;4993234;28;20265;-91
2023/04/03 03:13:36;;;;;;;10.20;7.33;;;4.20;99.90;;;;;;4988425;28;20178;-91
2023/04/03 03:16:49;;;;;;;8.67;6.00;;;4.20;99.90;;;;;;4987266;28;20175;-91
2023/04/03 03:19:45;;;;;;;10.03;7.67;;;4.20;99.90;;;;;;4992668;28;20954;-91
2023/04/03 03:25:43;;;;;;;8.80;6.37;;;4.20;99.90;;;;;;5043465;28;20181;-91
2023/04/03 03:31:42;;;;;;;7.87;6.27;;;4.20;99.90;;;;;;5055671;28;20201;-91
2023/04/03 03:34:19;;;;;;;8.23;6.03;;;4.20;99.90;;;;;;5038670;28;20189;-90
2023/04/03 03:37:01;;;;;;;8.07;6.60;;;4.10;99.90;;;;;;5041108;28;20208;-91
2023/04/03 03:40:16;;;;;;;;;;;;;;;;;;;;;
2023/04/03 03:43:17;;;;;;;8.07;6.10;;;4.10;99.90;;;;;;5058184;28;20278;-91
2023/04/03 03:46:01;;;;;;;9.77;7.00;;;4.10;99.90;;;;;;5057227;28;20169;-90
2023/04/03 03:48:40;;;;;;;10.57;6.70;;;4.00;99.90;;;;;;5063265;28;20169;-91
2023/04/03 03:51:17;;;;;;;8.63;6.90;;;4.10;99.90;;;;;;5059056;28;20180;-91
2023/04/03 03:54:15;;;;;;;9.90;6.30;;;4.20;99.90;;;;;;5059295;28;20197;-91
2023/04/03 04:01:03;;;;;;;;;;;;;;;;;;;;;
2023/04/03 04:04:22;;;;;;;;;;;;;;;;;;;;;
2023/04/03 04:11:25;;;;;;;10.63;6.90;;;4.00;99.90;;;;;;5034965;28;20212;-90
2023/04/03 04:17:37;;;;;;;9.13;7.07;;;3.90;99.90;;;;;;4856911;28;20711;-90
2023/04/03 04:24:14;;;;;;;9.40;6.90;;;3.90;99.90;;;;;;5008448;28;20256;-90
2023/04/03 04:27:17;;;;;;;;;;;;;;;;;;;;;
2023/04/03 04:30:39;;;;;;;10.43;6.67;;;3.80;99.90;;;;;;5038481;28;20260;-90
2023/04/03 04:46:30;;;;;;;10.30;7.03;;;3.60;99.90;;;;;;5036919;28;20191;-91
2023/04/03 04:56:10;;;;;;;12.27;9.27;;;3.60;99.90;;;;;;4975126;28;20722;-91
2023/04/03 04:59:01;;;;;;;10.77;7.80;;;3.50;99.90;;;;;;4975863;28;20193;-91
2023/04/03 05:06:11;;;;;;;8.73;7.40;;;3.50;99.90;;;;;;4897011;29;20667;-91
2023/04/03 05:15:48;;;;;;;10.63;8.30;;;3.40;99.90;;;;;;4892231;29;20179;-92
2023/04/03 05:25:48;;;;;;;10.80;8.17;;;3.50;99.90;;;;;;4924189;29;20198;-94
2023/04/03 05:29:31;;;;;;;;;;;;;;;;;;;;;
2023/04/03 05:35:46;;;;;;;10.73;8.63;;;3.40;99.90;;;;;;4996550;28;20199;-93
2023/04/03 05:56:27;;;;;;;12.93;8.77;;;3.70;99.90;;;;;;4796736;29;20306;-90
2023/04/03 06:06:29;;;;;;;11.67;8.13;;;3.70;99.90;;;;;;4824102;29;20180;-91
2023/04/03 06:09:08;;;;;;;9.90;8.40;;;3.70;99.90;;;;;;4948110;28;20242;-91
2023/04/03 06:12:16;;;;;;;12.10;8.80;;;3.80;99.90;;;;;;5017125;28;20197;-91
2023/04/03 06:15:17;;;;;;;13.83;9.63;;;3.80;99.90;;;;;;5048092;28;20180;-90
2023/04/03 06:18:17;;;;;;;12.20;9.47;;;3.80;99.90;;;;;;5037252;28;20208;-90
2023/04/03 06:21:58;;;;;;;;;;;;;;;;;;;;;
2023/04/03 06:24:45;;;;;;;12.87;9.63;;;4.00;99.90;;;;;;4952559;29;20700;-91
2023/04/03 06:27:35;;;;;;;12.37;9.90;;;4.10;99.90;;;;;;4948213;28;20160;-89
2023/04/03 06:30:54;;;;;;;;;;;;;;;;;;;;;
2023/04/03 06:37:42;;;;;;;;;;;;;;;;;;;;;
2023/04/03 06:40:49;;;;;;;13.63;9.33;;;4.20;99.90;;;;;;4883772;29;20175;-90
2023/04/03 06:44:07;;;;;;;;;;;;;;;;;;;;;
2023/04/03 06:49:59;;;;;;;10.97;9.13;;;4.10;99.90;;;;;;4901287;29;20254;-90
2023/04/03 06:56:08;;;;;;;11.10;9.17;;;4.20;99.90;;;;;;4899192;29;20305;-90
2023/04/03 06:58:46;;;;;;;12.03;8.73;;;4.30;99.90;;;;;;4900259;29;20238;-90
2023/04/03 07:01:44;;;;;;;11.27;9.03;;;4.30;99.90;;;;;;4901122;29;20201;-91
2023/04/03 07:07:56;;;;;;;13.50;10.30;;;4.30;99.90;;;;;;4916516;29;20193;-90
2023/04/03 07:10:22;;;;;;;12.10;9.77;;;4.30;99.90;;;;;;4980531;28;20193;-88
2023/04/03 07:16:24;;;;;;;13.17;9.50;;;4.30;99.90;;;;;;5034985;28;20220;-90
2023/04/03 07:18:51;;;;;;;16.77;10.07;;;4.40;99.90;;;;;;5019148;28;20312;-89
2023/04/03 07:21:43;;;;;;;14.73;10.37;;;4.50;99.90;;;;;;5018699;28;20170;-89
2023/04/03 07:27:34;;;;;;;14.00;9.60;;;4.70;99.90;;;;;;4977078;28;20218;-89
2023/04/03 07:30:03;;;;;;;13.83;10.43;;;4.70;99.90;;;;;;4959234;28;20179;-89
2023/04/03 07:32:35;;;;;;;13.77;8.50;;;4.80;99.90;;;;;;5000452;28;20335;-88
2023/04/03 07:42:05;;;;;;;12.87;10.57;;;4.90;99.90;;;;;;4986629;28;20209;-92
2023/04/03 07:44:49;;;;;;;10.00;7.70;;;5.10;99.90;;;;;;4974835;28;20199;-89
2023/04/03 07:48:14;;;;;;;;;;;;;;;;;;;;;
2023/04/03 07:54:30;;;;;;;9.73;7.57;;;5.30;99.90;;;;;;4977733;28;20410;-90
2023/04/03 08:00:21;;;;;;;10.53;7.97;;;5.40;99.90;;;;;;4967652;28;20183;-91
2023/04/03 08:02:53;;;;;;;10.47;7.87;;;5.30;99.90;;;;;;4947540;28;20186;-92
2023/04/03 08:05:47;;;;;;;9.80;8.83;;;5.40;99.90;;;;;;4979638;28;20182;-92
2023/04/03 08:08:23;;;;;;;10.00;7.23;;;5.60;99.90;;;;;;5016538;28;20290;-92
2023/04/03 08:11:20;;;;;;;9.73;7.83;;;5.80;99.90;;;;;;5027538;28;20201;-91
2023/04/03 08:14:06;;;;;;;8.10;7.17;;;5.90;99.90;;;;;;5002009;28;20280;-92
2023/04/03 08:16:45;;;;;;;8.17;7.23;;;5.90;99.90;;;;;;5016069;28;20177;-91
2023/04/03 08:19:21;;;;;;;9.63;7.97;;;5.80;99.90;;;;;;5019161;28;20205;-92
2023/04/03 08:21:58;;;;;;;9.77;7.70;;;6.00;99.90;;;;;;5017299;28;20231;-90
2023/04/03 08:24:30;;;;;;;9.20;7.10;;;6.10;99.90;;;;;;5012604;28;20200;-91
2023/04/03 08:30:36;;;;;;;10.67;6.83;;;6.10;99.90;;;;;;5027114;28;20213;-91
2023/04/03 08:33:36;;;;;;;7.97;6.67;;;6.20;99.90;;;;;;5020082;28;20178;-93
2023/04/03 08:36:18;;;;;;;9.07;7.10;;;6.20;99.90;;;;;;5011172;28;20268;-93
2023/04/03 08:39:07;;;;;;;10.23;7.20;;;6.40;99.90;;;;;;5033769;28;20615;-92
2023/04/03 08:41:46;;;;;;;9.80;6.90;;;6.50;99.90;;;;;;5022230;28;20186;-91
2023/04/03 08:45:02;;;;;;;;;;;;;;;;;;;;;
2023/04/03 08:48:20;;;;;;;9.27;5.47;;;6.30;99.90;;;;;;5017313;28;20241;-90
2023/04/03 08:54:55;;;;;;;7.50;5.70;;;6.40;99.90;;;;;;4919356;29;20244;-90
2023/04/03 08:57:42;;;;;;;6.97;5.60;;;6.50;99.90;;;;;;4969178;28;20220;-90
2023/04/03 09:00:35;;;;;;;8.87;5.73;;;6.70;99.90;;;;;;4976523;28;20197;-91
2023/04/03 09:03:15;;;;;;;10.13;5.87;;;6.80;99.90;;;;;;5005380;28;20188;-90
2023/04/03 09:06:09;;;;;;;7.40;5.90;;;6.90;99.90;;;;;;5018653;28;20178;-91
2023/04/03 09:09:49;;;;;;;11.00;5.83;;;7.00;99.90;;;;;;5036308;28;20185;-91
2023/04/03 09:12:39;;;;;;;7.43;5.83;;;7.10;99.90;;;;;;5015180;28;20189;-91
2023/04/03 09:15:27;;;;;;;7.33;4.23;;;7.20;99.90;;;;;;5054494;28;20189;-91
2023/04/03 09:19:23;;;;;;;6.73;4.40;;;7.10;99.90;;;;;;5037910;28;20265;-92
2023/04/03 09:22:10;;;;;;;7.17;5.33;;;7.10;99.90;;;;;;5041500;28;20209;-94
2023/04/03 09:24:36;;;;;;;7.00;4.40;;;7.20;99.90;;;;;;4940404;29;20180;-92
2023/04/03 09:27:15;;;;;;;7.17;4.17;;;7.30;99.90;;;;;;4942706;28;20208;-92
2023/04/03 09:29:44;;;;;;;6.50;4.40;;;7.40;99.90;;;;;;5002931;28;20211;-90
2023/04/03 09:32:31;;;;;;;6.47;4.20;;;7.40;99.90;;;;;;5034009;28;20177;-93
2023/04/03 09:35:21;;;;;;;5.83;3.50;;;7.50;99.90;;;;;;5018315;28;20169;-92
2023/04/03 09:37:52;;;;;;;7.70;3.80;;;7.70;99.90;;;;;;5018066;28;20684;-92
2023/04/03 09:40:38;;;;;;;6.37;3.63;;;7.70;99.90;;;;;;5034378;28;20185;-93
2023/04/03 09:43:20;;;;;;;7.90;3.87;;;7.80;99.90;;;;;;5043766;28;20196;-93
2023/04/03 09:45:48;;;;;;;5.73;3.67;;;7.70;99.90;;;;;;5039454;28;20181;-92
2023/04/03 09:48:15;;;;;;;6.97;3.60;;;7.80;99.90;;;;;;5037912;28;20176;-93
2023/04/03 09:51:01;;;;;;;6.87;4.17;;;7.90;99.90;;;;;;5040109;28;20629;-93
2023/04/03 09:53:39;;;;;;;8.53;3.37;;;8.20;99.90;;;;;;5043678;28;20173;-92
2023/04/03 09:56:30;;;;;;;6.03;2.63;;;8.10;99.90;;;;;;5050788;28;20172;-91
2023/04/03 09:58:58;;;;;;;8.37;3.90;;;8.10;99.90;;;;;;5044591;28;20203;-93
2023/04/03 10:01:58;;;;;;;4.57;3.10;;;8.20;99.90;;;;;;5043061;28;20188;-93
2023/04/03 10:04:24;;;;;;;6.27;3.33;;;8.20;99.90;;;;;;5038240;28;20173;-93
2023/04/03 10:06:54;;;;;;;4.93;2.83;;;8.20;99.90;;;;;;5045195;28;20177;-92
2023/04/03 10:09:23;;;;;;;6.77;3.10;;;8.20;99.90;;;;;;5042736;28;20250;-94
2023/04/03 10:12:10;;;;;;;4.53;2.70;;;8.20;99.90;;;;;;5040820;28;20268;-92
2023/04/03 10:14:56;;;;;;;6.57;2.93;;;8.10;99.90;;;;;;5041938;28;20537;-93
2023/04/03 10:18:01;;;;;;;5.13;2.60;;;8.10;99.90;;;;;;5024117;28;20271;-92
2023/04/03 10:20:37;;;;;;;5.07;2.20;;;8.20;99.90;;;;;;5025622;28;20264;-92
2023/04/03 10:23:19;;;;;;;5.40;2.50;;;8.20;99.90;;;;;;5033564;28;20280;-92
2023/04/03 10:25:54;;;;;;;7.43;2.57;;;8.40;99.90;;;;;;5027022;28;20172;-92
2023/04/03 10:28:27;;;;;;;4.30;2.20;;;8.40;99.90;;;;;;5041992;28;20168;-90
2023/04/03 10:30:58;;;;;;;7.77;2.13;;;8.50;99.90;;;;;;5040338;28;20188;-89
2023/04/03 10:34:04;;;;;;;4.97;2.33;;;8.50;99.90;;;;;;5036820;28;20680;-91
2023/04/03 10:36:35;;;;;;;5.50;2.40;;;8.70;99.90;;;;;;5041727;28;20188;-91
2023/04/03 10:39:13;;;;;;;5.10;2.47;;;8.80;99.90;;;;;;5040663;28;20172;-89
2023/04/03 10:42:20;;;;;;;5.77;2.20;;;8.80;99.90;;;;;;5046732;28;20625;-87
2023/04/03 10:45:20;;;;;;;5.40;1.90;;;8.90;99.90;;;;;;5009104;28;20181;-88
2023/04/03 10:48:28;;;;;;;3.77;1.93;;;8.90;99.90;;;;;;5033316;28;20172;-88
2023/04/03 10:51:01;;;;;;;3.43;2.20;;;8.90;99.90;;;;;;4963895;28;20171;-89
2023/04/03 10:53:32;;;;;;;5.97;1.97;;;8.80;99.90;;;;;;5026294;28;20189;-89
2023/04/03 10:56:35;;;;;;;4.60;2.23;;;8.90;99.90;;;;;;5025699;28;20204;-88
2023/04/03 10:59:25;;;;;;;3.73;1.77;;;9.00;99.90;;;;;;5038945;28;20299;-90
2023/04/03 11:02:16;;;;;;;4.53;1.60;;;9.10;99.90;;;;;;5046456;28;20169;-90
2023/04/03 11:04:44;;;;;;;5.00;1.90;;;9.10;99.90;;;;;;5012062;28;20330;-89
2023/04/03 11:07:19;;;;;;;3.70;1.80;;;9.00;99.90;;;;;;5044094;28;20227;-89
2023/04/03 11:09:49;;;;;;;3.43;1.50;;;8.90;99.90;;;;;;5042472;28;20184;-88
2023/04/03 11:12:44;;;;;;;2.40;1.40;;;8.90;99.90;;;;;;5043768;28;20185;-89
2023/04/03 11:15:16;;;;;;;3.33;1.60;;;9.00;99.90;;;;;;5047901;28;20589;-88
2023/04/03 11:17:52;;;;;;;4.57;1.80;;;8.90;99.90;;;;;;5043086;28;20215;-87
2023/04/03 11:20:27;;;;;;;3.97;1.53;;;9.00;99.90;;;;;;5043130;28;20172;-90
2023/04/03 11:23:01;;;;;;;5.50;1.90;;;9.00;99.90;;;;;;5041989;28;20179;-88
2023/04/03 11:25:32;;;;;;;3.20;1.60;;;9.30;99.90;;;;;;5053105;28;20176;-88
2023/04/03 11:28:03;;;;;;;4.87;2.00;;;9.30;99.90;;;;;;5039257;28;20227;-88
2023/04/03 11:30:38;;;;;;;4.50;2.03;;;9.40;99.90;;;;;;5023758;28;20189;-88
2023/04/03 11:33:19;;;;;;;5.43;2.27;;;9.60;99.90;;;;;;5023261;28;20216;-88
2023/04/03 11:35:49;;;;;;;6.33;2.30;;;9.50;99.90;;;;;;5029655;28;20688;-88
2023/04/03 11:38:40;;;;;;;;;;;;;;;;;;;;;
2023/04/03 11:41:09;;;;;;;4.30;1.90;;;9.40;99.90;;;;;;5043755;28;20244;-88
2023/04/03 11:43:58;;;;;;;3.93;2.10;;;9.50;99.90;;;;;;5044152;28;20191;-86
2023/04/03 11:46:57;;;;;;;5.63;2.07;;;9.70;99.90;;;;;;5045850;28;20231;-88
2023/04/03 11:50:03;;;;;;;3.87;1.80;;;9.70;99.90;;;;;;5068651;28;20177;-88
2023/04/03 11:52:48;;;;;;;4.03;1.40;;;9.70;99.90;;;;;;5045748;28;20248;-89
2023/04/03 11:55:20;;;;;;;6.03;1.90;;;9.60;99.90;;;;;;5046599;28;20232;-90
2023/04/03 11:57:58;;;;;;;5.00;1.50;;;9.40;99.90;;;;;;5041437;28;20220;-90
2023/04/03 12:00:51;;;;;;;5.23;1.87;;;9.50;99.90;;;;;;5043057;28;20180;-86
2023/04/03 12:03:29;;;;;;;3.57;1.70;;;9.60;99.90;;;;;;5042247;28;20165;-89
2023/04/03 12:06:18;;;;;;;3.30;1.40;;;9.70;99.90;;;;;;5042543;28;20192;-90
2023/04/03 12:08:52;;;;;;;3.87;1.80;;;9.70;99.90;;;;;;5041131;28;20184;-89
2023/04/03 12:11:45;;;;;;;5.60;2.30;;;9.70;99.90;;;;;;5039997;28;20188;-88
2023/04/03 12:14:24;;;;;;;5.77;2.13;;;9.80;99.90;;;;;;5019276;28;20173;-88
2023/04/03 12:16:51;;;;;;;4.43;2.10;;;9.70;99.90;;;;;;5006361;28;20201;-88
2023/04/03 12:19:43;;;;;;;4.83;1.97;;;9.80;99.90;;;;;;5023081;28;20256;-88
2023/04/03 12:22:15;;;;;;;4.60;1.90;;;9.60;99.90;;;;;;5041671;28;20228;-86
2023/04/03 12:24:51;;;;;;;2.33;1.50;;;9.70;99.90;;;;;;5031111;28;20244;-87
2023/04/03 12:27:41;;;;;;;4.10;1.20;;;10.00;99.90;;;;;;5026017;28;20236;-89
2023/04/03 12:30:22;;;;;;;4.47;1.70;;;9.80;99.90;;;;;;5026314;28;20217;-89
2023/04/03 12:33:23;;;;;;;2.27;1.20;;;9.70;99.90;;;;;;5046930;28;20537;-89
2023/04/03 12:36:02;;;;;;;3.37;1.70;;;9.60;99.90;;;;;;5043813;28;20174;-88
2023/04/03 12:39:07;;;;;;;5.80;2.00;;;9.60;99.90;;;;;;5044435;28;20217;-87
2023/04/03 12:41:50;;;;;;;3.97;1.53;;;9.90;99.90;;;;;;5056448;28;20169;-87
2023/04/03 12:44:30;;;;;;;2.43;1.30;;;10.00;99.90;;;;;;5071508;28;20173;-86
2023/04/03 12:47:00;;;;;;;2.90;1.30;;;9.90;99.90;;;;;;5078267;28;20191;-87
2023/04/03 12:49:39;;;;;;;5.70;1.73;;;10.00;99.90;;;;;;5060168;28;20237;-88
2023/04/03 12:52:52;;;;;;;4.10;2.13;;;10.00;99.90;;;;;;5077164;28;20165;-88
2023/04/03 12:55:23;;;;;;;6.30;2.10;;;10.00;99.90;;;;;;4982107;28;20172;-86
2023/04/03 12:58:27;;;;;;;3.67;1.63;;;10.00;99.90;;;;;;4997491;28;20223;-88
2023/04/03 13:01:14;;;;;;;4.00;1.70;;;10.10;99.90;;;;;;4947710;29;20199;-89
2023/04/03 13:03:47;;;;;;;3.13;1.23;;;10.00;99.90;;;;;;4958490;28;20171;-87
2023/04/03 13:06:31;;;;;;;2.63;1.37;;;10.00;99.90;;;;;;5018726;28;20193;-88
2023/04/03 13:09:01;;;;;;;4.30;1.50;;;10.10;99.50;;;;;;5037967;28;20181;-87
2023/04/03 13:11:34;;;;;;;4.67;1.30;;;10.10;99.90;;;;;;5031431;28;20184;-89
2023/04/03 13:14:13;;;;;;;2.50;1.43;;;10.10;99.90;;;;;;5040586;28;20222;-88
2023/04/03 13:16:41;;;;;;;3.70;1.40;;;10.20;99.90;;;;;;5057269;28;20276;-89
2023/04/03 13:19:17;;;;;;;3.40;1.40;;;10.30;99.80;;;;;;5048205;28;20197;-88
2023/04/03 13:21:45;;;;;;;6.23;1.40;;;10.20;99.90;;;;;;5049120;28;20161;-88
2023/04/03 13:24:12;;;;;;;2.27;1.30;;;10.40;99.50;;;;;;5043392;28;20200;-88
2023/04/03 13:26:38;;;;;;;5.27;1.67;;;10.30;97.10;;;;;;5038548;28;20180;-91
2023/04/03 13:29:22;;;;;;;2.97;1.20;;;10.40;96.70;;;;;;5008067;28;20185;-90
2023/04/03 13:31:54;;;;;;;3.67;1.80;;;10.30;95.70;;;;;;5025176;28;20189;-90
2023/04/03 13:34:22;;;;;;;3.10;1.40;;;10.40;97.50;;;;;;5024566;28;20296;-89
2023/04/03 13:36:53;;;;;;;4.07;1.80;;;10.40;97.60;;;;;;5024942;28;20169;-91
2023/04/03 13:39:26;;;;;;;2.57;1.50;;;10.40;94.70;;;;;;5032528;28;20241;-89
2023/04/03 13:41:55;;;;;;;2.57;1.23;;;10.40;93.20;;;;;;5038028;28;20242;-89
2023/04/03 13:44:20;;;;;;;4.33;2.00;;;10.60;93.70;;;;;;5039013;28;20209;-87
2023/04/03 13:46:58;;;;;;;4.63;1.53;;;10.40;93.20;;;;;;5034237;28;20178;-88
2023/04/03 13:49:48;;;;;;;4.77;2.10;;;10.40;91.90;;;;;;5048875;28;20185;-90
2023/04/03 13:52:41;;;;;;;4.53;1.97;;;10.60;94.80;;;;;;5024656;28;20170;-88
2023/04/03 13:55:33;;;;;;;3.30;1.30;;;10.70;93.40;;;;;;5028501;28;20177;-88
2023/04/03 13:58:19;;;;;;;7.00;1.80;;;10.80;94.10;;;;;;5023561;28;20213;-90
2023/04/03 14:00:52;;;;;;;3.17;1.60;;;10.80;94.20;;;;;;5031740;28;20193;-89
2023/04/03 14:03:29;;;;;;;2.87;1.40;;;10.70;94.30;;;;;;5021964;28;20241;-89
2023/04/03 14:05:55;;;;;;;4.23;2.00;;;10.70;92.90;;;;;;5038972;28;20177;-89
2023/04/03 14:08:22;;;;;;;3.57;1.60;;;10.70;94.20;;;;;;5023740;28;20600;-88
2023/04/03 14:10:49;;;;;;;4.43;1.40;;;10.80;93.60;;;;;;5023029;28;20165;-89
2023/04/03 14:13:18;;;;;;;3.53;1.20;;;10.70;93.40;;;;;;5015210;28;20212;-88
2023/04/03 14:15:48;;;;;;;4.33;1.80;;;10.70;93.70;;;;;;5017570;28;20549;-89
2023/04/03 14:18:17;;;;;;;4.20;1.73;;;10.60;93.80;;;;;;5010397;28;20230;-86
2023/04/03 14:20:44;;;;;;;4.27;1.40;;;10.70;92.70;;;;;;5033418;28;20556;-88
2023/04/03 14:23:11;;;;;;;3.33;1.80;;;10.80;92.70;;;;;;5033842;28;20174;-89
2023/04/03 14:25:39;;;;;;;4.67;1.80;;;10.80;91.50;;;;;;5021740;28;20185;-88
2023/04/03 14:28:15;;;;;;;2.30;1.53;;;10.90;93.40;;;;;;5017189;28;20571;-88
2023/04/03 14:30:41;;;;;;;3.50;1.80;;;10.80;92.10;;;;;;5017183;28;20193;-88
2023/04/03 14:33:14;;;;;;;4.87;1.80;;;10.80;92.10;;;;;;5004342;28;20277;-88
2023/04/03 14:35:40;;;;;;;3.53;1.47;;;10.90;93.10;;;;;;5010601;28;20244;-88
2023/04/03 14:38:28;;;;;;;4.37;1.50;;;10.90;92.80;;;;;;5019470;28;20228;-89
2023/04/03 14:40:57;;;;;;;3.47;1.57;;;10.60;92.50;;;;;;5020381;28;20242;-87
2023/04/03 14:43:26;;;;;;;2.57;1.63;;;10.60;93.20;;;;;;5017977;28;20197;-92
2023/04/03 14:46:44;;;;;;;3.40;1.37;;;10.80;94.20;;;;;;5012065;28;20173;-89
2023/04/03 14:49:21;;;;;;;2.73;1.33;;;10.90;93.00;;;;;;5026171;28;20230;-90
2023/04/03 14:51:47;;;;;;;3.37;1.40;;;10.90;91.00;;;;;;5030279;28;20185;-89
2023/04/03 14:54:16;;;;;;;3.93;1.67;;;10.90;91.80;;;;;;5038528;28;20205;-88
2023/04/03 14:56:45;;;;;;;5.47;1.63;;;11.20;92.00;;;;;;5025442;28;20177;-88
2023/04/03 14:59:15;;;;;;;3.80;2.00;;;11.40;92.40;;;;;;5022533;28;20528;-89
2023/04/03 15:01:41;;;;;;;3.47;1.30;;;11.50;93.40;;;;;;5060949;28;20169;-87
2023/04/03 15:04:15;;;;;;;4.17;1.80;;;11.30;92.30;;;;;;5041908;28;20260;-89
2023/04/03 15:06:42;;;;;;;4.90;1.90;;;11.20;92.90;;;;;;5047176;28;20190;-87
2023/04/03 15:09:21;;;;;;;4.40;1.77;;;11.20;92.80;;;;;;5044365;28;20264;-89
2023/04/03 15:11:49;;;;;;;4.20;1.47;;;11.40;93.40;;;;;;5064991;28;20172;-87
2023/04/03 15:14:15;;;;;;;3.00;1.47;;;11.50;92.20;;;;;;5039587;28;20185;-89
2023/04/03 15:16:41;;;;;;;6.57;1.60;;;11.40;92.80;;;;;;5019835;28;20228;-88
2023/04/03 15:19:06;;;;;;;3.80;1.80;;;11.40;91.50;;;;;;5021874;28;20185;-89
2023/04/03 15:21:33;;;;;;;3.60;1.80;;;11.60;91.30;;;;;;5031267;28;20270;-90
2023/04/03 15:24:02;;;;;;;1.93;1.43;;;11.50;89.20;;;;;;5024924;28;20311;-90
2023/04/03 15:26:27;;;;;;;4.33;1.80;;;11.50;90.40;;;;;;5026250;28;20191;-90
2023/04/03 15:28:53;;;;;;;3.93;1.67;;;11.70;90.20;;;;;;5025232;28;20288;-89
2023/04/03 15:31:19;;;;;;;3.13;1.43;;;11.80;90.40;;;;;;5022972;28;20193;-89
2023/04/03 15:33:45;;;;;;;2.00;1.20;;;11.70;90.00;;;;;;5043283;28;20176;-89
2023/04/03 15:36:11;;;;;;;2.43;1.40;;;11.70;89.80;;;;;;5024075;28;20173;-92
2023/04/03 15:38:38;;;;;;;3.03;1.60;;;11.70;88.20;;;;;;5028559;28;20225;-89
2023/04/03 15:41:05;;;;;;;4.17;2.20;;;11.80;89.00;;;;;;5040401;28;20255;-87
2023/04/03 15:43:34;;;;;;;2.97;1.70;;;11.80;88.50;;;;;;5043030;28;20181;-89
2023/04/03 15:46:01;;;;;;;3.53;1.80;;;11.50;85.00;;;;;;5057385;28;20224;-89
2023/04/03 15:48:28;;;;;;;4.37;1.50;;;11.50;87.10;;;;;;5044264;28;20185;-89
2023/04/03 15:50:56;;;;;;;2.93;1.30;;;11.50;87.10;;;;;;5088888;28;20277;-88
2023/04/03 15:53:29;;;;;;;2.50;1.60;;;11.40;86.10;;;;;;5053639;28;20178;-88
2023/04/03 15:56:07;;;;;;;5.00;1.57;;;11.40;86.30;;;;;;5058059;28;20169;-87
2023/04/03 15:58:33;;;;;;;3.87;1.70;;;11.30;87.30;;;;;;5030428;28;20205;-88
2023/04/03 16:00:59;;;;;;;4.33;1.80;;;11.50;86.40;;;;;;5051809;28;20272;-88
2023/04/03 16:03:26;;;;;;;4.70;1.70;;;11.50;89.40;;;;;;5068317;28;20211;-87
2023/04/03 16:05:53;;;;;;;3.47;1.60;;;11.70;89.10;;;;;;5078420;28;20192;-90
2023/04/03 16:08:19;;;;;;;4.47;1.80;;;11.70;87.00;;;;;;5076187;28;20184;-88
2023/04/03 16:10:46;;;;;;;4.77;2.30;;;11.70;88.80;;;;;;5067144;28;20191;-88
2023/04/03 16:13:14;;;;;;;3.93;1.40;;;11.90;90.00;;;;;;5079984;28;20181;-89
2023/04/03 16:15:40;;;;;;;2.67;1.40;;;11.80;88.20;;;;;;5083756;28;20176;-86
2023/04/03 16:18:15;;;;;;;4.87;1.50;;;11.70;86.60;;;;;;5054220;28;20220;-88
2023/04/03 16:20:52;;;;;;;3.40;2.07;;;11.70;85.60;;;;;;5070225;28;20179;-87
2023/04/03 16:23:23;;;;;;;4.47;1.73;;;12.10;89.60;;;;;;5077594;28;20195;-88
2023/04/03 16:25:49;;;;;;;7.10;3.23;;;12.60;86.60;;;;;;5065413;28;20179;-88
2023/04/03 16:28:17;;;;;;;4.00;1.90;;;13.00;85.50;;;;;;5030372;28;20180;-88
2023/04/03 16:30:45;;;;;;;5.17;1.80;;;13.40;83.30;;;;;;5062924;28;20250;-88
2023/04/03 16:33:22;;;;;;;3.10;1.73;;;14.10;81.90;;;;;;5047641;28;20552;-90
2023/04/03 16:35:49;;;;;;;3.57;1.73;;;14.40;78.40;;;;;;5048348;28;20271;-89
2023/04/03 16:38:18;;;;;;;3.67;1.97;;;14.10;79.40;;;;;;5057966;28;20243;-85
2023/04/03 16:40:48;;;;;;;3.07;1.90;;;13.90;79.70;;;;;;5088788;28;20157;-89
2023/04/03 16:43:19;;;;;;;5.63;2.07;;;14.40;79.10;;;;;;5059371;28;20652;-90
2023/04/03 16:45:48;;;;;;;3.70;1.83;;;14.80;77.10;;;;;;5071343;28;20179;-87
2023/04/03 16:48:14;;;;;;;6.40;2.07;;;15.10;75.60;;;;;;5078043;28;20176;-89
2023/04/03 16:50:40;;;;;;;4.30;2.37;;;15.20;75.50;;;;;;5068783;28;20220;-88
2023/04/03 16:53:09;;;;;;;4.03;2.27;;;15.20;76.30;;;;;;5048704;28;20182;-89
2023/04/03 16:55:40;;;;;;;4.83;2.40;;;15.10;77.30;;;;;;5074620;28;20184;-89
2023/04/03 16:58:10;;;;;;;5.03;2.00;;;15.20;75.50;;;;;;5068169;28;20235;-88
2023/04/03 17:00:36;;;;;;;3.00;2.00;;;15.00;74.10;;;;;;5085271;28;20203;-87
2023/04/03 17:03:03;;;;;;;4.10;2.20;;;14.10;77.50;;;;;;5044970;28;20186;-88
2023/04/03 17:05:29;;;;;;;4.50;2.00;;;13.50;81.20;;;;;;5068542;28;20196;-87
2023/04/03 17:07:55;;;;;;;4.27;1.97;;;13.20;83.70;;;;;;5054890;28;20170;-88
2023/04/03 17:10:20;;;;;;;4.87;2.00;;;12.30;85.30;;;;;;5066838;28;20181;-86
2023/04/03 17:12:49;;;;;;;3.50;2.33;;;11.70;88.80;;;;;;5056200;28;20200;-88
2023/04/03 17:15:19;;;;;;;5.67;1.93;;;11.50;90.80;;;;;;5066348;28;20173;-88
2023/04/03 17:17:51;;;;;;;3.43;1.60;;;11.30;91.20;;;;;;5070314;28;20231;-89
2023/04/03 17:20:38;;;;;;;4.80;1.63;;;11.10;91.70;;;;;;5045706;28;20195;-90
2023/04/03 17:23:06;;;;;;;4.17;2.00;;;11.10;92.30;;;;;;5051540;28;20196;-90
2023/04/03 17:25:59;;;;;;;5.00;2.57;;;11.30;93.10;;;;;;5063830;28;20215;-88
2023/04/03 17:28:27;;;;;;;4.73;1.73;;;11.80;93.40;;;;;;5055018;28;20173;-88
2023/04/03 17:31:00;;;;;;;4.10;1.80;;;12.30;92.60;;;;;;5050561;28;20232;-90
2023/04/03 17:33:29;;;;;;;3.60;1.63;;;12.70;90.50;;;;;;5055867;28;20264;-88
2023/04/03 17:36:03;;;;;;;3.60;1.97;;;13.00;90.30;;;;;;5055757;28;20238;-88
2023/04/03 17:38:30;;;;;;;4.13;1.43;;;13.10;89.60;;;;;;5050520;28;20236;-90
2023/04/03 17:41:05;;;;;;;4.80;1.90;;;13.00;88.50;;;;;;5070311;28;20175;-88
2023/04/03 17:43:34;;;;;;;6.57;2.20;;;12.90;89.90;;;;;;5072584;28;20191;-87
2023/04/03 17:46:04;;;;;;;5.70;2.60;;;12.90;90.80;;;;;;5034260;28;20245;-88
2023/04/03 17:48:32;;;;;;;3.73;1.83;;;12.10;90.90;;;;;;5046872;28;20180;-89
2023/04/03 17:51:02;;;;;;;5.00;2.00;;;11.40;92.70;;;;;;5064370;28;20262;-88
2023/04/03 17:53:28;;;;;;;4.30;1.90;;;11.00;94.40;;;;;;5059804;28;20165;-88
2023/04/03 17:56:03;;;;;;;5.50;2.20;;;10.90;95.00;;;;;;5060372;28;20587;-87
2023/04/03 17:58:28;;;;;;;3.43;1.83;;;11.10;95.20;;;;;;5066044;28;20329;-89
2023/04/03 18:00:55;;;;;;;3.77;2.20;;;11.30;95.00;;;;;;5061769;28;20204;-87
2023/04/03 18:03:21;;;;;;;4.53;2.23;;;10.90;96.00;;;;;;5056030;28;20253;-89
2023/04/03 18:05:49;;;;;;;4.33;1.87;;;10.60;97.50;;;;;;5068832;28;20192;-89
2023/04/03 18:08:16;;;;;;;4.97;1.70;;;10.30;98.90;;;;;;5068145;28;20193;-89
2023/04/03 18:10:43;;;;;;;4.57;2.20;;;10.00;99.90;;;;;;5047901;28;20180;-89
2023/04/03 18:13:10;;;;;;;3.30;2.03;;;9.90;99.90;;;;;;5055971;28;20188;-87
2023/04/03 18:15:42;;;;;;;4.10;2.17;;;9.80;99.90;;;;;;5060338;28;20200;-89
2023/04/03 18:18:11;;;;;;;4.50;2.30;;;9.70;99.90;;;;;;5046170;28;20208;-89